ETHB

Buckeburg Airport

Germany
METAR ETHB 092020Z 29017KT 9999 FEW010 BKN060 06/03 Q1006 RESHRA BLU
Observed Flight Rules
Dec-9 @ 20:20 UTC (an hour ago) Visual Flight Rules
Wind Visibility Clouds
290° at 17 knots 10,000+ meters
  • Few at 1,000' AGL
  • Broken at 6,000' AGL
Temperatures Readings
Current 6°C / 43°F
Dewpoint 3°C / 37°F
Humidity 81%
Altimeter 29.7" Hg
Pressure 1006 hPa
Elevation 78
METAR ETHB 092020Z 29017KT 9999 FEW010 BKN060 06/03 Q1006 RESHRA BLU
Observed Flight Rules
Dec-9 @ 20:20 UTC
(an hour ago)
VFR
Wind Visibility
290° at 17 knots 10,000+ meters
Clouds
  • Few at 1,000' AGL
  • Broken at 6,000' AGL
Temperature Dewpoint
6°C / 43°F 3°C / 37°F
Humidity Altimeter Pressure
81% 29.7" Hg 1006 hPa